Radar AviationWeather DUATS TFRs Wunderground Accuweather Weather.com

alt : Radar

TAFs

KJXN 211738Z 2118/2218 20008KT P6SM SCT250
   FM220100 VRB03KT P6SM SCT250
   FM220900 VRB03KT 5SM BR BKN150
   FM221400 22005KT P6SM SCT040 SCT150
KDTW 211728Z 2118/2224 16004KT P6SM SCT060 BKN250
   FM212300 16005KT P6SM SCT050 BKN200
   FM220600 12004KT 3SM BR BKN250
   FM221300 16006KT 4SM BR SCT070
   FM221600 17006KT P6SM BKN250
KFWA 211726Z 2118/2218 21007KT P6SM SCT040 SCT250
   FM220200 18003KT P6SM FEW250
KFDY 211720Z 2118/2218 VRB05KT P6SM SCT050
   FM220000 VRB02KT P6SM FEW250
   FM220900 00000KT 4SM BR FEW250
   FM221400 00000KT P6SM FEW250
KCLE 211720Z 2118/2224 VRB04KT P6SM FEW050
   FM212000 04008KT P6SM SKC
   FM220200 VRB03KT P6SM FEW250
   FM220900 00000KT 6SM BR FEW250
   FM221400 VRB04KT P6SM FEW250
KTOL 211720Z 2118/2218 VRB04KT P6SM SCT050
   FM220000 VRB03KT P6SM FEW250
   FM220800 00000KT 4SM BR FEW250
   FM221400 00000KT P6SM FEW250

METARs

KJXN 211856Z 16012KT 10SM SCT055 33/19 A3005 RMK AO2 SLP168 T03330189
KDUH 211855Z AUTO 00000KT 10SM CLR 32/21 A3005 RMK AO2 T03240214
KFWA 211854Z 17006KT 10SM SCT048 SCT250 31/21 A3006 RMK AO2 SLP172 T03060206
KDTW 211853Z 18008KT 10SM FEW040 SCT250 31/23 A3006 RMK AO2 SLP174 T03110233
KFDY 211853Z AUTO 14003KT 10SM CLR 32/21 A3006 RMK AO2 SLP167 T03170206 TSNO
KTDZ 211853Z AUTO 00000KT 10SM BKN045 33/22 A3006 RMK AO2 SLP173 T03280217
KTOL 211852Z 00000KT 10SM SCT050 33/22 A3005 RMK AO2 SLP171 T03280222
KCLE 211851Z 36010KT 10SM FEW050 33/18 A3009 RMK AO2 SLP184 T03280178 $

alt : Satellite

alt : TFRs